createdAt,value
2018-03-25T00:01:04.410Z,18.27
2018-03-25T00:03:30.829Z,20.12
2018-03-25T00:05:57.248Z,9.82
2018-03-25T00:08:23.827Z,13.30
2018-03-25T00:10:52.102Z,13.77
2018-03-25T00:13:18.613Z,16.08
2018-03-25T00:15:45.068Z,12.43
2018-03-25T00:18:11.485Z,12.82
2018-03-25T00:20:37.987Z,14.90
2018-03-25T00:23:04.435Z,12.73
2018-03-25T00:25:30.913Z,11.27
2018-03-25T00:28:15.992Z,9.68
2018-03-25T00:30:43.164Z,8.95
2018-03-25T00:33:10.329Z,9.50
2018-03-25T00:35:36.788Z,13.80
2018-03-25T00:38:03.243Z,12.07
2018-03-25T00:40:29.729Z,12.55
2018-03-25T00:42:56.199Z,17.52
2018-03-25T00:45:22.625Z,11.27
2018-03-25T00:47:49.051Z,22.33
2018-03-25T00:50:15.518Z,20.67
2018-03-25T00:52:41.974Z,9.75
2018-03-25T00:55:09.166Z,9.10
2018-03-25T00:57:35.626Z,8.70
2018-03-25T01:00:02.119Z,24.95
2018-03-25T01:02:28.545Z,11.77
2018-03-25T01:04:55.763Z,9.70
2018-03-25T01:07:22.345Z,10.90
2018-03-25T01:09:48.883Z,16.95
2018-03-25T01:12:15.463Z,12.27
2018-03-25T01:14:42.009Z,16.00
2018-03-25T01:17:08.598Z,9.10
2018-03-25T01:19:35.173Z,12.63
2018-03-25T01:22:01.771Z,11.93
2018-03-25T01:24:28.360Z,12.95
2018-03-25T01:26:54.934Z,23.23
2018-03-25T01:29:21.466Z,9.20
2018-03-25T01:31:48.075Z,8.82
2018-03-25T01:34:14.604Z,15.20
2018-03-25T01:36:41.249Z,10.20
2018-03-25T01:39:07.826Z,15.45
2018-03-25T01:41:34.410Z,17.40
2018-03-25T01:44:01.747Z,10.45
2018-03-25T01:46:28.391Z,10.38
2018-03-25T01:48:54.920Z,8.85
2018-03-25T01:51:21.506Z,10.20
2018-03-25T01:53:48.915Z,12.20
2018-03-25T01:56:15.447Z,16.65
2018-03-25T01:58:42.031Z,13.40
2018-03-25T02:01:08.664Z,17.77
2018-03-25T02:03:35.281Z,15.95
2018-03-25T02:06:01.855Z,10.15
2018-03-25T02:08:29.217Z,16.12
2018-03-25T02:10:55.872Z,10.68
2018-03-25T02:13:22.434Z,16.52
2018-03-25T02:15:49.071Z,11.40
2018-03-25T02:18:15.664Z,8.63
2018-03-25T02:20:42.963Z,17.30
2018-03-25T02:23:09.512Z,9.95
2018-03-25T02:25:36.046Z,13.70
2018-03-25T02:28:02.717Z,12.25
2018-03-25T02:30:30.768Z,16.00
2018-03-25T02:32:57.393Z,25.10
2018-03-25T02:35:24.107Z,12.02
2018-03-25T02:37:50.659Z,9.85
2018-03-25T02:40:17.272Z,9.35
2018-03-25T02:42:48.515Z,8.23
2018-03-25T02:45:15.055Z,10.90
2018-03-25T02:47:41.660Z,18.58
2018-03-25T02:50:08.964Z,9.05
2018-03-25T02:52:35.657Z,18.73
2018-03-25T02:55:02.283Z,13.88
2018-03-25T02:57:28.820Z,10.40
2018-03-25T02:59:55.404Z,15.10
2018-03-25T03:02:21.997Z,11.82
2018-03-25T03:04:48.575Z,14.82
2018-03-25T03:07:15.167Z,10.85
2018-03-25T03:09:41.711Z,10.07
2018-03-25T03:12:09.014Z,25.50
2018-03-25T03:14:35.611Z,12.37
2018-03-25T03:17:02.175Z,26.92
2018-03-25T03:19:28.716Z,19.60
2018-03-25T03:21:55.980Z,8.02
2018-03-25T03:24:22.587Z,20.85
2018-03-25T03:26:49.851Z,12.73
2018-03-25T03:29:17.155Z,9.95
2018-03-25T03:31:43.680Z,11.43
2018-03-25T03:34:10.243Z,8.57
2018-03-25T03:36:36.862Z,22.50
2018-03-25T03:39:03.503Z,7.72
2018-03-25T03:41:30.048Z,8.60
2018-03-25T03:43:56.675Z,8.35
2018-03-25T03:46:23.269Z,13.85
2018-03-25T03:48:50.578Z,10.63
2018-03-25T03:51:17.999Z,11.30
2018-03-25T03:53:44.551Z,12.20
2018-03-25T03:56:11.081Z,11.70
2018-03-25T03:58:37.626Z,10.82
2018-03-25T04:01:04.223Z,10.18
2018-03-25T04:03:31.486Z,12.43
2018-03-25T04:05:58.041Z,13.73
2018-03-25T04:08:24.612Z,10.07
2018-03-25T04:10:51.159Z,16.85
2018-03-25T04:13:17.773Z,9.02
2018-03-25T04:15:44.322Z,21.52
2018-03-25T04:18:10.897Z,9.18
2018-03-25T04:20:38.166Z,10.48
2018-03-25T04:23:04.741Z,10.10
2018-03-25T04:25:31.319Z,8.35
2018-03-25T04:27:58.659Z,16.87
2018-03-25T04:30:25.190Z,11.60
2018-03-25T04:32:52.569Z,17.73
2018-03-25T04:35:19.136Z,10.40
2018-03-25T04:37:45.702Z,15.10
2018-03-25T04:40:12.238Z,12.80
2018-03-25T04:42:38.823Z,7.55
2018-03-25T04:45:05.406Z,9.55
2018-03-25T04:47:32.009Z,10.27
2018-03-25T04:49:58.562Z,18.27
2018-03-25T04:52:25.142Z,10.45
2018-03-25T04:54:51.700Z,8.18
2018-03-25T04:57:18.401Z,25.10
2018-03-25T04:59:44.949Z,16.33
2018-03-25T05:02:11.539Z,9.52
2018-03-25T05:04:38.214Z,6.78
2018-03-25T05:07:04.775Z,8.90
2018-03-25T05:09:31.384Z,7.78
2018-03-25T05:11:58.023Z,8.75
2018-03-25T05:14:24.602Z,12.07
2018-03-25T05:16:51.914Z,7.93
2018-03-25T05:19:18.493Z,17.73
2018-03-25T05:21:45.060Z,7.75
2018-03-25T05:24:11.595Z,8.57
2018-03-25T05:26:38.198Z,12.13
2018-03-25T05:29:04.759Z,19.50
2018-03-25T05:31:31.359Z,8.35
2018-03-25T05:33:58.024Z,13.55
2018-03-25T05:36:25.374Z,10.77
2018-03-25T05:38:52.704Z,18.92
2018-03-25T05:41:19.429Z,9.15
2018-03-25T05:43:45.975Z,13.00
2018-03-25T05:46:12.577Z,16.45
2018-03-25T05:48:39.159Z,9.10
2018-03-25T05:51:05.822Z,9.10
2018-03-25T05:53:32.535Z,14.35
2018-03-25T05:55:59.203Z,9.50
2018-03-25T05:58:25.793Z,10.55
2018-03-25T06:00:52.331Z,9.00
2018-03-25T06:03:18.988Z,24.75
2018-03-25T06:05:45.535Z,11.05
2018-03-25T06:08:12.172Z,13.95
2018-03-25T06:10:38.792Z,13.13
2018-03-25T06:13:05.360Z,12.70
2018-03-25T06:15:31.932Z,11.27
2018-03-25T06:17:58.602Z,10.27
2018-03-25T06:20:25.246Z,12.40
2018-03-25T06:22:51.864Z,10.95
2018-03-25T06:25:18.497Z,15.27
2018-03-25T06:27:45.917Z,29.80
2018-03-25T06:30:12.502Z,27.98
2018-03-25T06:32:39.062Z,23.50
2018-03-25T06:35:05.657Z,15.70
2018-03-25T06:37:32.197Z,12.63
2018-03-25T06:39:58.864Z,26.37
2018-03-25T06:42:25.383Z,28.02
2018-03-25T06:44:51.938Z,30.73
2018-03-25T06:47:18.617Z,30.17
2018-03-25T06:49:46.047Z,25.83
2018-03-25T06:52:12.570Z,26.87
2018-03-25T06:54:39.154Z,22.70
2018-03-25T06:57:05.746Z,25.17
2018-03-25T06:59:32.351Z,29.65
2018-03-25T07:01:59.610Z,33.10
2018-03-25T07:04:26.194Z,28.77
2018-03-25T07:06:52.741Z,24.63
2018-03-25T07:09:19.389Z,20.37
2018-03-25T07:11:47.716Z,22.40
2018-03-25T07:14:18.376Z,26.00
2018-03-25T07:16:45.700Z,26.00
2018-03-25T07:19:12.285Z,31.67
2018-03-25T07:21:38.823Z,23.27
2018-03-25T07:24:06.906Z,22.53
2018-03-25T07:26:33.423Z,27.33
2018-03-25T07:29:00.003Z,22.00
2018-03-25T07:31:26.560Z,27.53
2018-03-25T07:33:53.119Z,26.73
2018-03-25T07:36:19.799Z,31.17
2018-03-25T07:38:46.367Z,24.67
2018-03-25T07:41:12.915Z,24.27
2018-03-25T07:43:39.468Z,29.27
2018-03-25T07:46:06.018Z,27.77
2018-03-25T07:48:32.605Z,26.17
2018-03-25T07:50:59.174Z,22.97
2018-03-25T07:53:25.772Z,29.23
2018-03-25T07:55:53.053Z,27.73
2018-03-25T07:58:19.636Z,49.40
2018-03-25T08:00:46.251Z,35.20
2018-03-25T08:03:12.880Z,25.20
2018-03-25T08:05:39.531Z,36.17
2018-03-25T08:08:06.119Z,29.93
2018-03-25T08:10:32.736Z,30.27
2018-03-25T08:13:00.044Z,31.33
2018-03-25T08:15:26.748Z,23.37
2018-03-25T08:17:53.316Z,29.87
2018-03-25T08:20:19.980Z,23.77
2018-03-25T08:22:46.608Z,24.03
2018-03-25T08:25:13.218Z,26.33
2018-03-25T08:27:40.500Z,27.03
2018-03-25T08:30:07.144Z,24.43
2018-03-25T08:32:33.675Z,27.07
2018-03-25T08:35:00.316Z,25.63
2018-03-25T08:37:26.833Z,24.60
2018-03-25T08:39:53.504Z,26.43
2018-03-25T08:42:20.061Z,31.23
2018-03-25T08:44:46.705Z,25.47
2018-03-25T08:47:13.308Z,26.00
2018-03-25T08:49:39.884Z,29.50
2018-03-25T08:52:07.201Z,27.87
2018-03-25T08:54:33.841Z,26.23
2018-03-25T08:57:00.371Z,24.70
2018-03-25T08:59:27.050Z,25.33
2018-03-25T09:01:54.339Z,26.13
2018-03-25T09:04:20.938Z,27.10
2018-03-25T09:06:47.480Z,27.03
2018-03-25T09:09:14.052Z,23.93
2018-03-25T09:11:40.660Z,28.00
2018-03-25T09:14:07.247Z,30.67
2018-03-25T09:16:33.823Z,23.20
2018-03-25T09:19:00.403Z,22.43
2018-03-25T09:21:26.959Z,24.63
2018-03-25T09:23:53.647Z,25.17
2018-03-25T09:26:20.928Z,19.33
2018-03-25T09:28:48.471Z,25.33
2018-03-25T09:31:18.888Z,23.93
2018-03-25T09:33:45.534Z,23.07
2018-03-25T09:36:12.166Z,25.83
2018-03-25T09:38:38.758Z,25.03
2018-03-25T09:41:05.319Z,22.70
2018-03-25T09:43:31.892Z,20.33
2018-03-25T09:45:59.183Z,25.60
2018-03-25T09:48:25.811Z,24.20
2018-03-25T09:50:52.382Z,20.17
2018-03-25T09:53:19.035Z,20.83
2018-03-25T09:55:45.662Z,22.53
2018-03-25T09:58:12.328Z,21.23
2018-03-25T10:00:39.704Z,15.83
2018-03-25T10:03:12.418Z,24.47
2018-03-25T10:05:39.276Z,18.00
2018-03-25T10:08:05.835Z,24.63
2018-03-25T10:10:32.675Z,19.47
2018-03-25T10:12:59.259Z,19.00
2018-03-25T10:15:25.875Z,24.57
2018-03-25T10:17:53.215Z,21.13
2018-03-25T10:20:20.818Z,17.20
2018-03-25T10:22:47.422Z,19.27
2018-03-25T10:25:14.919Z,21.97
2018-03-25T10:27:41.492Z,21.83
2018-03-25T10:30:08.100Z,19.03
2018-03-25T10:32:34.655Z,16.67
2018-03-25T10:35:01.217Z,16.00
2018-03-25T10:37:27.774Z,15.43
2018-03-25T10:39:55.092Z,12.87
2018-03-25T10:42:21.775Z,13.77
2018-03-25T10:44:50.112Z,16.20
2018-03-25T10:47:16.889Z,15.40
2018-03-25T10:49:43.550Z,12.40
2018-03-25T10:52:10.264Z,14.23
2018-03-25T10:54:36.852Z,15.00
2018-03-25T10:57:03.513Z,15.47
2018-03-25T10:59:30.151Z,14.67
2018-03-25T11:01:56.687Z,14.70
2018-03-25T11:04:23.249Z,16.50
2018-03-25T11:06:49.893Z,13.63
2018-03-25T11:09:17.245Z,17.83
2018-03-25T11:11:44.791Z,14.23
2018-03-25T11:14:11.367Z,13.27
2018-03-25T11:16:37.950Z,12.33
2018-03-25T11:19:04.521Z,12.83
2018-03-25T11:21:31.137Z,14.47
2018-03-25T11:23:57.799Z,17.10
2018-03-25T11:26:24.408Z,14.57
2018-03-25T11:28:50.950Z,15.57
2018-03-25T11:31:18.363Z,14.97
2018-03-25T11:33:44.896Z,14.93
2018-03-25T11:36:11.511Z,13.90
2018-03-25T11:38:38.932Z,18.33
2018-03-25T11:41:05.707Z,15.90
2018-03-25T11:43:33.368Z,16.40
2018-03-25T11:46:00.509Z,16.60
2018-03-25T11:48:35.252Z,14.37
2018-03-25T11:51:02.879Z,13.60
2018-03-25T11:53:30.289Z,13.17
2018-03-25T11:55:59.287Z,12.00
2018-03-25T11:58:43.186Z,14.00
2018-03-25T12:01:14.146Z,13.60
2018-03-25T12:03:43.783Z,14.00
2018-03-25T12:06:23.094Z,10.33
2018-03-25T12:08:50.858Z,11.30
2018-03-25T12:11:17.671Z,13.50
2018-03-25T12:13:53.760Z,11.30
2018-03-25T12:16:21.514Z,12.67
2018-03-25T12:18:48.864Z,9.90
2018-03-25T12:21:20.660Z,11.93
2018-03-25T12:23:47.267Z,12.70
2018-03-25T12:26:26.991Z,12.47
2018-03-25T12:28:55.571Z,10.17
2018-03-25T12:31:22.963Z,10.90
2018-03-25T12:33:55.339Z,10.63
2018-03-25T12:36:34.102Z,12.90
2018-03-25T12:39:04.689Z,9.47
2018-03-25T12:41:49.099Z,13.93
2018-03-25T12:44:15.870Z,13.53
2018-03-25T12:46:42.417Z,11.57
2018-03-25T12:49:33.427Z,10.87
2018-03-25T12:51:59.975Z,10.20
2018-03-25T12:54:26.567Z,12.30
2018-03-25T12:56:53.103Z,11.17
2018-03-25T12:59:19.791Z,11.33
2018-03-25T13:01:46.352Z,9.87
2018-03-25T13:04:27.823Z,11.47
2018-03-25T13:06:55.132Z,10.20
2018-03-25T13:09:21.875Z,9.60
2018-03-25T13:12:04.784Z,7.87
2018-03-25T13:14:35.570Z,9.57
2018-03-25T13:17:02.932Z,6.73
2018-03-25T13:19:29.552Z,6.00
2018-03-25T13:21:56.908Z,8.57
2018-03-25T13:24:30.365Z,11.70
2018-03-25T13:26:57.123Z,9.53
2018-03-25T13:29:23.722Z,13.53
2018-03-25T13:31:50.472Z,11.00
2018-03-25T13:34:18.006Z,15.63
2018-03-25T13:37:08.363Z,11.93
2018-03-25T13:39:35.720Z,11.00
2018-03-25T13:42:02.348Z,11.63
2018-03-25T13:47:31.864Z,13.03
2018-03-25T13:50:03.424Z,12.13
2018-03-25T13:55:24.980Z,17.87
2018-03-25T13:57:51.611Z,12.47
2018-03-25T14:00:18.293Z,9.33
2018-03-25T14:02:44.934Z,10.83
2018-03-25T14:05:12.394Z,10.30
2018-03-25T14:07:40.192Z,14.30
2018-03-25T14:15:59.386Z,13.77
2018-03-25T14:18:26.171Z,9.97
2018-03-25T14:20:52.734Z,9.77
2018-03-25T14:23:19.471Z,8.30
2018-03-25T14:25:46.028Z,8.13
2018-03-25T14:28:13.319Z,9.07
2018-03-25T14:30:40.016Z,8.50
2018-03-25T14:36:09.750Z,13.07
2018-03-25T14:38:36.342Z,10.47
2018-03-25T14:41:02.924Z,11.70
2018-03-25T14:43:48.700Z,12.07
2018-03-25T14:46:15.262Z,13.40
2018-03-25T14:48:42.553Z,12.47
2018-03-25T14:51:09.204Z,11.93
2018-03-25T14:53:35.759Z,13.50
2018-03-25T14:56:11.555Z,16.40
2018-03-25T14:58:38.120Z,11.20
2018-03-25T15:01:16.651Z,12.93
2018-03-25T15:03:43.212Z,15.23
2018-03-25T15:06:09.800Z,13.10
2018-03-25T15:08:36.360Z,9.33
2018-03-25T15:11:03.040Z,12.03
2018-03-25T15:13:37.647Z,12.97
2018-03-25T15:16:05.021Z,16.40
2018-03-25T15:18:32.381Z,15.47
2018-03-25T15:20:58.962Z,15.97
2018-03-25T15:23:30.469Z,15.47
2018-03-25T15:25:57.012Z,16.90
2018-03-25T15:28:24.320Z,14.07
2018-03-25T15:33:45.091Z,14.00
2018-03-25T15:36:11.672Z,15.70
2018-03-25T15:38:38.216Z,18.40
2018-03-25T15:41:12.804Z,10.03
2018-03-25T15:43:40.085Z,13.70
2018-03-25T15:46:06.778Z,15.90
2018-03-25T15:48:33.423Z,12.67
2018-03-25T15:51:00.818Z,11.83
2018-03-25T15:53:27.392Z,16.70
2018-03-25T15:56:14.284Z,10.00
2018-03-25T15:58:40.927Z,14.67
2018-03-25T16:01:07.497Z,14.33
2018-03-25T16:03:34.860Z,15.60
2018-03-25T16:06:17.640Z,13.47
2018-03-25T16:08:45.028Z,16.57
2018-03-25T16:11:28.947Z,13.10
2018-03-25T16:13:55.534Z,18.37
2018-03-25T16:16:27.762Z,17.47
2018-03-25T16:18:58.318Z,13.07
2018-03-25T16:21:24.866Z,14.70
2018-03-25T16:23:51.419Z,13.40
2018-03-25T16:26:24.183Z,15.13
2018-03-25T16:28:50.879Z,14.30
2018-03-25T16:31:19.639Z,16.37
2018-03-25T16:33:47.263Z,13.40
2018-03-25T16:36:13.867Z,12.70
2018-03-25T16:38:41.493Z,13.37
2018-03-25T16:41:28.375Z,10.10
2018-03-25T16:43:55.716Z,13.03
2018-03-25T16:46:22.424Z,14.23
2018-03-25T16:48:58.051Z,10.50
2018-03-25T16:51:28.641Z,8.90
2018-03-25T16:59:47.916Z,12.63
2018-03-25T17:02:14.482Z,11.20
2018-03-25T17:04:42.579Z,19.80
2018-03-25T17:07:10.001Z,11.37
2018-03-25T17:09:36.564Z,8.67
2018-03-25T17:12:07.232Z,9.80
2018-03-25T17:14:33.840Z,11.80
2018-03-25T17:17:22.767Z,14.13
2018-03-25T17:19:50.099Z,10.47
2018-03-25T17:22:28.806Z,11.77
2018-03-25T17:24:57.466Z,12.40
2018-03-25T17:27:40.356Z,11.50
2018-03-25T17:30:28.688Z,6.93
2018-03-25T17:32:55.383Z,8.70
2018-03-25T17:35:28.656Z,8.80
2018-03-25T17:38:18.965Z,11.07
2018-03-25T17:43:40.251Z,16.13
2018-03-25T17:46:06.896Z,13.57
2018-03-25T17:51:28.248Z,14.33
2018-03-25T17:53:54.878Z,21.10
2018-03-25T17:56:31.623Z,18.83
2018-03-25T17:58:58.184Z,17.83
2018-03-25T18:01:43.048Z,13.03
2018-03-25T18:04:26.079Z,16.17
2018-03-25T18:06:52.712Z,16.33
2018-03-25T18:09:19.355Z,12.27
2018-03-25T18:11:50.911Z,10.73
2018-03-25T18:14:17.543Z,11.43
2018-03-25T18:16:44.112Z,11.80
2018-03-25T18:19:10.660Z,9.63
2018-03-25T18:21:38.122Z,13.83
2018-03-25T18:24:05.427Z,10.67
2018-03-25T18:26:39.220Z,8.53
2018-03-25T18:29:05.820Z,10.27
2018-03-25T18:31:33.115Z,11.77
2018-03-25T18:33:59.674Z,11.43
2018-03-25T18:39:21.260Z,19.57
2018-03-25T18:42:11.224Z,17.30
2018-03-25T18:47:36.095Z,13.30
2018-03-25T18:50:02.728Z,8.47
2018-03-25T18:52:30.114Z,9.70
2018-03-25T18:54:56.786Z,8.03
2018-03-25T18:57:23.638Z,11.90
2018-03-25T19:00:04.348Z,11.33
2018-03-25T19:02:30.938Z,7.23
2018-03-25T19:05:07.512Z,7.67
2018-03-25T19:07:34.126Z,13.47
2018-03-25T19:10:00.696Z,9.20
2018-03-25T19:12:28.151Z,12.87
2018-03-25T19:14:58.680Z,12.50
2018-03-25T19:17:26.019Z,14.83
2018-03-25T19:19:52.609Z,8.40
2018-03-25T19:22:19.200Z,9.60
2018-03-25T19:24:46.633Z,6.57
2018-03-25T19:27:16.195Z,5.87
2018-03-25T19:29:42.772Z,6.57
2018-03-25T19:32:09.366Z,8.00
2018-03-25T19:34:35.927Z,8.77
2018-03-25T19:37:02.546Z,7.60
2018-03-25T19:39:33.774Z,8.13
2018-03-25T19:42:00.416Z,6.40
2018-03-25T19:44:26.988Z,8.27
2018-03-25T19:46:53.531Z,5.33
2018-03-25T19:49:24.084Z,6.23
2018-03-25T19:51:50.670Z,6.90
2018-03-25T19:54:18.018Z,6.70
2018-03-25T19:56:44.543Z,9.83
2018-03-25T19:59:11.125Z,8.97
2018-03-25T20:01:37.679Z,9.10
2018-03-25T20:04:04.248Z,11.83
2018-03-25T20:06:31.579Z,5.40
2018-03-25T20:08:58.279Z,10.10
2018-03-25T20:11:25.563Z,7.90
2018-03-25T20:13:52.103Z,13.07
2018-03-25T20:16:18.706Z,9.00
2018-03-25T20:18:45.247Z,20.03
2018-03-25T20:21:11.781Z,16.90
2018-03-25T20:23:38.368Z,14.00
2018-03-25T20:26:04.939Z,14.30
2018-03-25T20:28:32.263Z,10.20
2018-03-25T20:30:58.855Z,7.80
2018-03-25T20:33:25.426Z,21.10
2018-03-25T20:35:51.979Z,18.53
2018-03-25T20:38:18.616Z,13.77
2018-03-25T20:40:45.214Z,9.20
2018-03-25T20:43:11.754Z,13.47
2018-03-25T20:45:38.315Z,10.00
2018-03-25T20:48:04.884Z,7.63
2018-03-25T20:50:31.474Z,8.33
2018-03-25T20:52:58.063Z,8.23
2018-03-25T20:55:24.611Z,8.90
2018-03-25T20:57:51.228Z,7.10
2018-03-25T21:00:17.957Z,8.10
2018-03-25T21:02:45.637Z,8.87
2018-03-25T21:05:12.219Z,10.63
2018-03-25T21:07:38.822Z,9.57
2018-03-25T21:10:05.458Z,6.90
2018-03-25T21:12:32.771Z,7.30
2018-03-25T21:15:03.266Z,13.40
2018-03-25T21:17:29.847Z,8.53
2018-03-25T21:19:56.475Z,8.00
2018-03-25T21:22:23.038Z,6.90
2018-03-25T21:24:49.574Z,10.53
2018-03-25T21:27:16.178Z,8.27
2018-03-25T21:29:42.730Z,42.37
2018-03-25T21:32:09.279Z,13.43
2018-03-25T21:34:36.607Z,9.57
2018-03-25T21:37:03.178Z,8.50
2018-03-25T21:39:29.763Z,11.97
2018-03-25T21:41:56.317Z,9.63
2018-03-25T21:44:22.963Z,7.73
2018-03-25T21:46:49.649Z,9.30
2018-03-25T21:49:16.191Z,22.33
2018-03-25T21:51:43.647Z,10.73
2018-03-25T21:54:10.198Z,10.43
2018-03-25T21:56:37.516Z,9.10
2018-03-25T21:59:05.569Z,8.20
2018-03-25T22:01:32.129Z,11.33
2018-03-25T22:03:58.743Z,9.30
2018-03-25T22:06:25.307Z,18.13
2018-03-25T22:08:51.884Z,10.27
2018-03-25T22:11:18.431Z,9.40
2018-03-25T22:13:45.062Z,10.33
2018-03-25T22:16:11.665Z,12.13
2018-03-25T22:18:50.335Z,8.90
2018-03-25T22:21:16.903Z,10.37
2018-03-25T22:23:44.959Z,11.53
2018-03-25T22:26:11.699Z,6.63
2018-03-25T22:28:38.268Z,9.27
2018-03-25T22:31:04.835Z,8.30
2018-03-25T22:33:32.098Z,7.57
2018-03-25T22:35:58.688Z,7.23
2018-03-25T22:38:25.240Z,9.47
2018-03-25T22:40:53.314Z,17.43
2018-03-25T22:43:19.907Z,9.83
2018-03-25T22:45:46.469Z,9.73
2018-03-25T22:48:13.021Z,8.50
2018-03-25T22:50:39.571Z,13.43
2018-03-25T22:53:07.020Z,10.93
2018-03-25T22:55:33.658Z,8.97
2018-03-25T22:58:00.203Z,11.80
2018-03-25T23:00:27.621Z,18.43
2018-03-25T23:02:54.179Z,29.07
2018-03-25T23:05:20.791Z,10.85
2018-03-25T23:07:47.319Z,8.97
2018-03-25T23:10:13.906Z,11.00
2018-03-25T23:12:40.447Z,20.27
2018-03-25T23:15:07.764Z,16.73
2018-03-25T23:17:34.343Z,11.40
2018-03-25T23:20:04.919Z,11.93
2018-03-25T23:22:31.476Z,12.57
2018-03-25T23:24:58.028Z,9.77
2018-03-25T23:27:26.112Z,8.40
2018-03-25T23:29:53.388Z,6.40
2018-03-25T23:32:19.959Z,8.23
2018-03-25T23:34:46.527Z,7.57
2018-03-25T23:37:13.137Z,8.88
2018-03-25T23:39:39.705Z,11.25
2018-03-25T23:42:06.263Z,8.50
2018-03-25T23:44:33.567Z,11.57
2018-03-25T23:47:00.111Z,7.70
2018-03-25T23:49:26.661Z,10.32
2018-03-25T23:54:52.578Z,32.42
2018-03-25T23:57:19.146Z,22.20
2018-03-25T23:59:45.666Z,10.90
